Impacts TAF Board INFO
FOR SITUATIONAL AWARENESS. NOT TO BE USED FOR FLIGHT PLANNING PURPOSES.
IDs:

KSFO - San Francisco Intl, CA, US

Issued at 0252 UTC 20 Feb 2018
Updated at 0352 UTC 20 Feb 2018
Potential Impact None Slight Moderate High
Time<<20/16Z 20/17Z 20/18Z 20/19Z 20/20Z 20/21Z 20/22Z 20/23Z 21/00Z 21/01Z 21/02Z 21/03Z 21/04Z>>
Type PRVL PRVL PRVL PRVL PRVL PRVL PRVL PRVL PRVL PRVL PRVL PRVL PRVL
VIS >6 >6 >6 >6 >6 >6 >6 >6 >6 >6 >6 >6 >6
CIG -- -- -- -- -- -- -- -- -- -- -- -- --
Cover SKC SKC SKC SKC SKC FEW FEW FEW FEW FEW FEW FEW SCT
FltCat VFR VFR VFR VFR VFR VFR VFR VFR VFR VFR VFR VFR VFR
WX -- -- -- -- -- -- -- -- -- -- -- -- --
WDir 280 280 280 280 280 300 300 300 300 300 300 300 VRB
WSpd 5 5 5 5 5 9 9 9 9 9 9 9 3
WGst -- -- -- -- -- -- -- -- -- -- -- -- --

Raw TAF
KSFO 200252Z 2003/2106 28014KT P6SM FEW045
  FM200400 29011KT P6SM FEW060
  FM200700 28007KT P6SM SKC
  FM201400 28005KT P6SM SKC
  FM202100 30009KT P6SM FEW120
  FM210400 VRB03KT P6SM SCT200


METAR Board
Radar Display
Forecast Discussion

FOR SITUATIONAL AWARENESS. NOT TO BE USED FOR FLIGHT PLANNING PURPOSES.